Vaaraa aiheuttavia sääilmiöitä ei ole odotettavissa.    Ei varoituksia

Webkamera Lisätietoa Webcam


Yksityisiä sääasemia lähellä:

Sääasema Juupajoki

Sääasema Orivesi

Sääasema Muurame

Sääasema Jyväskylä

Sääasema Vihtavuori


Löydät sääaseman tiedot myös:

Finland Weather Exchange

European Weather Network

Weather Underground

AWEKAS

Windy.com



Säätiedot lähimmiltä METAR asemilta

   
EFHA - Halli (Fin-Afb), Finland
Etäisyys asemalta: Kaakko 25 km
Päivitetty: 28.11.2020 18:50
Heikkoa lumisadetta, Pilvistä  
Heikkoa lumisadetta, Pilvistä  
   Tuuli: Vaihtelee 0.5 m/s
Tuuli: Vaihtelee 0.5 m/s
Lämpötila: -1°C
Kastepiste: -2°C
Kosteus: 93%
Ilmanpaine: 1030 hPa
Pilvisyys: Pilvistä
Näkyvyys: 7 km
Pilvitiedot: Pilvistä 366 m
EFHA 281650Z AUTO VRB01KT 7000 -SN OVC012 M01/M02 Q1030 REFZRA
EFJY - Jyvaskyla (Mil/Civ), Finland
Etäisyys asemalta: Koillinen 75 km
Päivitetty: 28.11.2020 18:50
Heikkoja sadekuuroja, Lumisadetta, Pilvistä  
Heikkoja sadekuuroja, Lumisadetta, Pilvistä  
   Tuuli: Itäkaakko 1.5 m/s
Tuuli: Itäkaakko 1.5 m/s
Lämpötila: -1°C
Tuulen hyytävyys: -3°C
Kastepiste: -1°C
Kosteus: 100%
Ilmanpaine: 1030 hPa
Pilvisyys: Pilvistä
Näkyvyys: 4 km
Pilvitiedot: Pilvistä 396 m
EFJY 281650Z AUTO 11003KT 3900 -SHSN OVC013 M01/M01 Q1030 REFZRA
EFTP - Tampere/Pirkkala, Finland
Etäisyys asemalta: Lounas 81 km
Päivitetty: 28.11.2020 19:20
Pilvistä  
Pilvistä  
   Tuuli: Itäkoillinen 1.5 m/s
Tuuli: Itäkoillinen 1.5 m/s
Lämpötila: 0°C
Tuulen hyytävyys: -2°C
Kastepiste: -1°C
Kosteus: 93%
Ilmanpaine: 1030 hPa
Pilvisyys: Pilvistä
Näkyvyys: Enemmän kuin 10 km
Pilvitiedot: Pilvistä 427 m
EFTP 281720Z AUTO 06003KT 9999 OVC014 M00/M01 Q1030
EFSI - Seinajoki-Ilmajoki, Finland
Etäisyys asemalta: Luode 114 km
Päivitetty: 28.11.2020 18:50
Pilvistä  
Pilvistä  
   Tuuli: Eteläkaakko 0.5 m/s
Tuuli: Eteläkaakko 0.5 m/s
Lämpötila: -2°C
Kastepiste: -3°C
Kosteus: 93%
Ilmanpaine: 1030 hPa
Pilvisyys: Pilvistä
Näkyvyys: Enemmän kuin 10 km
Pilvitiedot: Pilvistä 427 m
EFSI 281650Z AUTO 15001KT 9999 OVC014 M02/M03 Q1030
EFMI - Mikkeli, Finland
Etäisyys asemalta: Itäkaakko 147 km
Päivitetty: 28.11.2020 18:50
Pilvistä  
Pilvistä  
   Tuuli: Koillinen 1.5 m/s
Tuuli: Koillinen 1.5 m/s
Lämpötila: 0°C
Tuulen hyytävyys: -2°C
Kastepiste: -2°C
Kosteus: 87%
Ilmanpaine: 1030 hPa
Pilvisyys: Pilvistä
Näkyvyys: Enemmän kuin 10 km
Pilvitiedot: Pilvistä 732 m
EFMI 281650Z AUTO 05003KT 9999 OVC024 M00/M02 Q1030
EFPO - Pori (Mil/Civ), Finland
Etäisyys asemalta: Länsilounas 154 km
Päivitetty: 28.11.2020 18:50
Pilvistä  
Pilvistä  
   Tuuli: Koillinen 1.5 m/s
Tuuli: Koillinen 1.5 m/s
Lämpötila: 0°C
Tuulen hyytävyys: -2°C
Kastepiste: -2°C
Kosteus: 87%
Ilmanpaine: 1030 hPa
Pilvisyys: Pilvistä
Näkyvyys: Enemmän kuin 10 km
Pilvitiedot: Pilvistä 640 m
EFPO 281650Z AUTO 04003KT 9999 OVC021 00/M02 Q1030
EFUT - Utti (Fin-Afb), Finland
Etäisyys asemalta: Kaakko 180 km
Päivitetty: 28.11.2020 18:50
Pilvistä  
Pilvistä  
   Tuuli: Koillinen 2.1 m/s
Tuuli: Koillinen 2.1 m/s
Lämpötila: 0°C
Tuulen hyytävyys: -3°C
Kastepiste: -1°C
Kosteus: 93%
Ilmanpaine: 1029 hPa
Pilvisyys: Pilvistä
Näkyvyys: Enemmän kuin 10 km
Pilvitiedot: Pilvistä 305 m
EFUT 281650Z AUTO 05004KT 020V080 9999 OVC010 00/M01 Q1029
EFVA - Vaasa, Finland
Etäisyys asemalta: Luode 180 km
Päivitetty: 28.11.2020 19:20
Pilvistä  
Pilvistä  
   Tuuli: Kaakko 1.5 m/s
Tuuli: Kaakko 1.5 m/s
Lämpötila: -3°C
Tuulen hyytävyys: -5°C
Kastepiste: -4°C
Kosteus: 93%
Ilmanpaine: 1030 hPa
Pilvisyys: Pilvistä
Näkyvyys: Enemmän kuin 10 km
Pilvitiedot: Pilvistä 488 m
EFVA 281720Z AUTO 14003KT 9999 OVC016 M03/M04 Q1030
EFHK - Helsinki/Vantaa, Finland
Etäisyys asemalta: Etelä 191 km
Päivitetty: 28.11.2020 19:20
Melkein pilvistä  
Melkein pilvistä  
   Tuuli: Pohjoiskoillinen 3.6 m/s
Tuuli: Pohjoiskoillinen 3.6 m/s
Lämpötila: 1°C
Tuulen hyytävyys: -3°C
Kastepiste: -1°C
Kosteus: 87%
Ilmanpaine: 1029 hPa
Pilvisyys: Melkein pilvistä
Näkyvyys: Enemmän kuin 10 km
Pilvitiedot: Vähäistä pilvisyyttä 488 m,
Melkein pilvistä 1036 m
EFHK 281720Z 03007KT 9999 FEW016 BKN034 01/M01 Q1029 NOSIG

Alkuperäinen skripti  Saratoga-weather.org Sovitettu myös templatelle  Weerstation Leuven

Laitteet joita käytämme:

Sääasema
Davis VP2

Sääasemaohjelma
Cumulus

Sääaseman palvelin
HP ProBook 6460b

Palveluntarjoaja
Radicenter

Davis VP2

Cumulus

HP ProBook 6460b

Radicenter




Flag Counter Cumulus Top Weather Sites